This is the latest recevied weather packets stored in our database for station/object KC9MWQ-13. If no packets are shown the sender has not sent any weather packets the latest 10 day(s).
| Time | Temp. | Humidity | Pressure | Rain* | Wind** | Luminosity | Snow |
|---|---|---|---|---|---|---|---|
| 1777916901 | 23.89° C | 60% | 1004.8 hPa | 0 mm | - | 714 W/m² | - |
| 1777916598 | 23.89° C | 60% | 1005.1 hPa | 0 mm | - | 752 W/m² | - |
| 1777916294 | 23.33° C | 61% | 1005 hPa | 0 mm | - | 727 W/m² | - |
| 1777915991 | 23.33° C | 62% | 1005 hPa | 0 mm | - | 722 W/m² | - |
| 1777915688 | 23.33° C | 62% | 1005.2 hPa | 0 mm | - | 740 W/m² | - |
| 1777915385 | 23.33° C | 63% | 1005.1 hPa | 0 mm | - | 763 W/m² | - |
| 1777915080 | 23.33° C | 62% | 1005.4 hPa | 0 mm | - | 744 W/m² | - |
| 1777914778 | 22.78° C | 68% | 1005.2 hPa | 0 mm | - | 710 W/m² | - |
| 1777914475 | 22.78° C | 62% | 1005.4 hPa | 0 mm | - | 684 W/m² | - |
| 1777914172 | 22.78° C | 64% | 1005.6 hPa | 0 mm | - | 729 W/m² | - |
| 1777913868 | 22.78° C | 63% | 1005.5 hPa | 0 mm | - | 760 W/m² | - |
| 1777913565 | 22.22° C | 65% | 1005.8 hPa | 0 mm | - | 744 W/m² | - |
| 1777913261 | 22.78° C | 63% | 1005.7 hPa | 0 mm | - | 734 W/m² | - |
| 1777912958 | 22.22° C | 64% | 1005.8 hPa | 0 mm | - | 745 W/m² | - |
| 1777912654 | 22.78° C | 62% | 1006 hPa | 0 mm | - | 740 W/m² | - |
| 1777912350 | 22.22° C | 62% | 1005.9 hPa | 0 mm | - | 723 W/m² | - |
| 1777912046 | 22.22° C | 64% | 1006 hPa | 0 mm | - | 730 W/m² | - |
| 1777911742 | 22.22° C | 66% | 1006.1 hPa | 0 mm | - | 701 W/m² | - |
| 1777911440 | 22.22° C | 66% | 1006.1 hPa | 0 mm | - | 707 W/m² | - |
| 1777911136 | 22.22° C | 66% | 1006.2 hPa | 0 mm | - | 685 W/m² | - |
| 1777910834 | 21.67° C | 68% | 1006.3 hPa | 0 mm | - | 661 W/m² | - |
| 1777910530 | 21.67° C | 66% | 1006.3 hPa | 0 mm | - | 658 W/m² | - |
| 1777910227 | 21.67° C | 69% | 1006.4 hPa | 0 mm | - | 724 W/m² | - |
| 1777909924 | 20.56° C | 69% | 1006.9 hPa | 0 mm | - | 531 W/m² | - |
| 1777909621 | 21.11° C | 68% | 1007 hPa | 0 mm | - | 786 W/m² | - |
* Rain latest hour (hover to see other rain measurements)
** Current wind speed in m/s (hover to see current wind gust speed)